Time;durP1;ratioP1;P1;durP2;ratioP2;P2;SDS_P1;SDS_P2;PMS_P1;PMS_P2;Temp;Humidity;BMP_temperature;BMP_pressure;BME280_temperature;BME280_humidity;BME280_pressure;Samples;Min_cycle;Max_cycle;Signal;HPM_P1;HPM_P2
2021/04/17 00:01:05;;;;;;;7.00;3.20;;;5.40;99.90;;;;;;5086858;28;20031;-47
2021/04/17 00:03:31;;;;;;;7.88;2.72;;;5.30;99.90;;;;;;5086505;28;20547;-45
2021/04/17 00:05:56;;;;;;;6.55;2.88;;;5.30;99.90;;;;;;5086615;28;20039;-46
2021/04/17 00:08:22;;;;;;;7.45;3.25;;;5.30;99.90;;;;;;5086058;28;20083;-46
2021/04/17 00:10:47;;;;;;;3.90;2.40;;;5.20;99.90;;;;;;5087346;28;20025;-46
2021/04/17 00:13:13;;;;;;;6.90;2.83;;;5.20;99.90;;;;;;5086516;28;20662;-45
2021/04/17 00:15:39;;;;;;;6.13;3.33;;;5.20;99.90;;;;;;5068967;28;20035;-46
2021/04/17 00:18:04;;;;;;;11.45;3.60;;;5.10;99.90;;;;;;5086290;28;20055;-45
2021/04/17 00:20:30;;;;;;;7.13;2.90;;;5.10;99.90;;;;;;5087054;28;20035;-46
2021/04/17 00:22:56;;;;;;;7.20;3.35;;;5.10;99.90;;;;;;5090678;28;20028;-46
2021/04/17 00:25:22;;;;;;;8.23;3.33;;;5.10;99.90;;;;;;5090266;28;20428;-45
2021/04/17 00:27:47;;;;;;;5.38;3.10;;;5.10;99.90;;;;;;5089332;28;20028;-46
2021/04/17 00:30:13;;;;;;;7.45;2.85;;;4.90;99.90;;;;;;5090274;28;20032;-45
2021/04/17 00:32:39;;;;;;;3.88;2.70;;;4.90;99.90;;;;;;5071716;28;20039;-46
2021/04/17 00:35:05;;;;;;;5.72;3.03;;;4.80;99.90;;;;;;5089941;28;20030;-52
2021/04/17 00:37:31;;;;;;;7.22;3.22;;;4.80;99.90;;;;;;5089208;28;20214;-45
2021/04/17 00:39:56;;;;;;;9.38;3.17;;;4.80;99.90;;;;;;5090376;28;20042;-47
2021/04/17 00:42:22;;;;;;;6.00;2.70;;;4.80;99.90;;;;;;5090155;28;20029;-46
2021/04/17 00:44:48;;;;;;;6.35;3.10;;;4.80;99.90;;;;;;5071531;28;20078;-45
2021/04/17 00:47:15;;;;;;;4.47;2.42;;;4.70;99.90;;;;;;5089806;28;20028;-45
2021/04/17 00:49:40;;;;;;;7.72;2.72;;;4.70;99.90;;;;;;5088953;28;20024;-44
2021/04/17 00:52:06;;;;;;;8.80;3.40;;;4.70;99.90;;;;;;5089976;28;20031;-44
2021/04/17 00:54:32;;;;;;;4.82;2.65;;;4.80;99.90;;;;;;5090214;28;20097;-44
2021/04/17 00:56:57;;;;;;;5.38;3.03;;;4.80;99.90;;;;;;5090190;28;20465;-47
2021/04/17 00:59:23;;;;;;;7.75;3.40;;;4.80;99.90;;;;;;5089024;28;20135;-46
2021/04/17 01:01:48;;;;;;;7.90;3.70;;;4.80;99.90;;;;;;5090166;28;20028;-45
2021/04/17 01:04:29;;;;;;;6.22;2.58;;;4.80;99.90;;;;;;5087775;28;20103;-46
2021/04/17 01:07:12;;;;;;;4.80;2.75;;;4.90;99.90;;;;;;5089743;28;20024;-46
2021/04/17 01:09:47;;;;;;;9.32;3.08;;;4.90;99.90;;;;;;5089074;28;20113;-47
2021/04/17 01:12:15;;;;;;;4.63;2.30;;;4.90;99.90;;;;;;5089421;28;20039;-46
2021/04/17 01:14:44;;;;;;;6.30;2.97;;;4.90;99.90;;;;;;5089524;28;20028;-45
2021/04/17 01:17:11;;;;;;;7.72;2.78;;;4.90;99.90;;;;;;5088993;28;20024;-46
2021/04/17 01:19:40;;;;;;;6.72;2.60;;;5.00;99.90;;;;;;5070535;28;20028;-45
2021/04/17 01:22:18;;;;;;;6.38;2.75;;;5.00;99.90;;;;;;5089422;28;20020;-45
2021/04/17 01:24:50;;;;;;;4.70;2.38;;;5.00;99.90;;;;;;5089543;28;20047;-44
2021/04/17 01:27:16;;;;;;;5.22;2.63;;;5.00;99.90;;;;;;5089018;28;20036;-45
2021/04/17 01:29:42;;;;;;;5.57;2.50;;;5.00;99.90;;;;;;5088907;28;20089;-44
2021/04/17 01:32:11;;;;;;;5.22;2.72;;;5.00;99.90;;;;;;5069612;28;20513;-46
2021/04/17 01:34:39;;;;;;;5.97;2.67;;;5.00;99.90;;;;;;5088841;28;20043;-46
2021/04/17 01:37:05;;;;;;;6.63;2.60;;;5.00;99.90;;;;;;5089190;28;20024;-45
2021/04/17 01:39:32;;;;;;;8.27;2.10;;;5.00;99.90;;;;;;5088101;28;20024;-46
2021/04/17 01:42:03;;;;;;;9.45;2.53;;;5.00;99.90;;;;;;5089139;28;20046;-46
2021/04/17 01:44:32;;;;;;;6.70;3.05;;;5.00;99.90;;;;;;5088864;28;20031;-45
2021/04/17 01:47:04;;;;;;;3.20;2.42;;;5.10;99.90;;;;;;5089404;28;20052;-45
2021/04/17 01:49:32;;;;;;;6.07;2.42;;;5.00;99.90;;;;;;5087695;28;20443;-45
2021/04/17 01:52:00;;;;;;;4.68;2.40;;;5.00;98.90;;;;;;5089044;28;20036;-45
2021/04/17 01:54:29;;;;;;;4.82;2.63;;;5.10;99.90;;;;;;5088890;28;20020;-44
2021/04/17 01:56:58;;;;;;;7.47;2.60;;;5.00;98.90;;;;;;5088790;28;20020;-45
2021/04/17 01:59:27;;;;;;;4.78;2.30;;;5.00;99.60;;;;;;5087928;28;20470;-45
2021/04/17 02:01:53;;;;;;;8.77;2.50;;;5.00;98.70;;;;;;5088315;28;20024;-45
2021/04/17 02:04:18;;;;;;;10.38;2.55;;;5.10;99.20;;;;;;5088245;28;20457;-45
2021/04/17 02:06:44;;;;;;;7.45;2.35;;;5.00;99.10;;;;;;5088683;28;20100;-45
2021/04/17 02:09:10;;;;;;;9.85;2.55;;;5.00;99.40;;;;;;5087847;28;20016;-45
2021/04/17 02:11:35;;;;;;;4.03;2.30;;;5.10;99.50;;;;;;5088283;28;20257;-45
2021/04/17 02:14:01;;;;;;;5.10;2.53;;;5.10;99.20;;;;;;5069623;28;20373;-44
2021/04/17 02:17:02;;;;;;;3.47;2.28;;;5.10;99.50;;;;;;5087241;28;20032;-44
2021/04/17 02:19:48;;;;;;;6.13;2.47;;;5.10;98.80;;;;;;5075043;28;20198;-45
2021/04/17 02:22:15;;;;;;;6.32;2.30;;;5.10;98.20;;;;;;5084971;28;20031;-45
2021/04/17 02:24:41;;;;;;;7.32;2.65;;;5.10;99.70;;;;;;5087328;28;20013;-44
2021/04/17 02:27:07;;;;;;;7.18;3.08;;;5.10;99.10;;;;;;5086872;28;20039;-46
2021/04/17 02:29:34;;;;;;;5.88;2.42;;;5.10;98.80;;;;;;5086971;28;20446;-46
2021/04/17 02:32:00;;;;;;;4.78;2.35;;;5.10;98.80;;;;;;5086704;28;20080;-47
2021/04/17 02:34:26;;;;;;;6.03;2.65;;;5.10;98.10;;;;;;5087477;28;20342;-45
2021/04/17 02:36:52;;;;;;;3.97;2.17;;;5.10;99.60;;;;;;5084955;28;20259;-45
2021/04/17 02:39:18;;;;;;;6.18;2.65;;;5.10;99.40;;;;;;5086614;28;20074;-46
2021/04/17 02:41:44;;;;;;;3.63;2.13;;;5.10;99.90;;;;;;5087403;28;20016;-45
2021/04/17 02:44:10;;;;;;;6.70;2.45;;;5.10;99.90;;;;;;5086360;28;20103;-45
2021/04/17 02:46:35;;;;;;;6.22;2.88;;;5.10;99.90;;;;;;5086900;28;20019;-47
2021/04/17 02:49:01;;;;;;;15.52;2.50;;;5.20;99.80;;;;;;5068263;28;20043;-45
2021/04/17 02:51:27;;;;;;;5.53;2.60;;;5.20;99.90;;;;;;5068588;28;20028;-48
2021/04/17 02:53:52;;;;;;;4.78;2.45;;;5.20;99.90;;;;;;5088174;28;20158;-47
2021/04/17 02:56:19;;;;;;;6.97;2.55;;;5.20;99.40;;;;;;5088188;28;20196;-45
2021/04/17 02:58:45;;;;;;;6.00;2.05;;;5.30;98.80;;;;;;5087115;28;20072;-46
2021/04/17 03:01:10;;;;;;;4.90;2.50;;;5.30;98.90;;;;;;5087987;28;20107;-46
2021/04/17 03:03:36;;;;;;;6.95;2.53;;;5.30;98.50;;;;;;5087589;28;20024;-46
2021/04/17 03:06:03;;;;;;;6.43;2.53;;;5.30;98.50;;;;;;5088225;28;20056;-46
2021/04/17 03:08:29;;;;;;;6.30;2.30;;;5.30;98.70;;;;;;5087024;28;20052;-45
2021/04/17 03:10:54;;;;;;;5.63;2.40;;;5.30;99.60;;;;;;5087530;28;20080;-45
2021/04/17 03:13:20;;;;;;;5.20;2.38;;;5.30;99.10;;;;;;5087831;28;20119;-45
2021/04/17 03:15:45;;;;;;;6.75;2.10;;;5.30;99.80;;;;;;5087283;28;20035;-46
2021/04/17 03:18:12;;;;;;;7.78;2.78;;;5.30;99.60;;;;;;5087539;28;20032;-46
2021/04/17 03:20:38;;;;;;;5.72;2.55;;;5.30;99.20;;;;;;5087895;28;20028;-48
2021/04/17 03:23:04;;;;;;;4.65;2.20;;;5.30;99.90;;;;;;5087015;28;20031;-45
2021/04/17 03:25:29;;;;;;;10.90;2.70;;;5.30;99.90;;;;;;5087547;28;20040;-46
2021/04/17 03:27:55;;;;;;;6.88;2.83;;;5.30;99.60;;;;;;5086806;28;20082;-44
2021/04/17 03:30:27;;;;;;;5.10;2.50;;;5.30;99.90;;;;;;5087058;28;20543;-46
2021/04/17 03:32:52;;;;;;;3.92;2.30;;;5.30;99.70;;;;;;5065451;28;20433;-45
2021/04/17 03:35:18;;;;;;;4.88;2.00;;;5.30;99.30;;;;;;5078725;28;20166;-47
2021/04/17 03:37:43;;;;;;;4.72;2.38;;;5.30;99.80;;;;;;5086837;28;20255;-46
2021/04/17 03:40:10;;;;;;;9.70;2.65;;;5.20;99.80;;;;;;5087535;28;20028;-45
2021/04/17 03:42:35;;;;;;;6.93;1.95;;;5.20;99.90;;;;;;5052429;28;20024;-45
2021/04/17 03:45:01;;;;;;;8.45;2.63;;;5.20;99.80;;;;;;5087250;28;20957;-46
2021/04/17 03:47:27;;;;;;;6.63;2.78;;;5.20;99.60;;;;;;5086831;28;20032;-45
2021/04/17 03:49:52;;;;;;;3.42;2.10;;;5.20;98.90;;;;;;5068611;28;20030;-46
2021/04/17 03:52:18;;;;;;;6.32;2.00;;;5.20;99.20;;;;;;5087056;28;20024;-44
2021/04/17 03:54:44;;;;;;;6.60;2.80;;;5.20;99.30;;;;;;5086099;28;20134;-45
2021/04/17 03:57:09;;;;;;;7.70;2.30;;;5.20;99.20;;;;;;5071815;28;20024;-45
2021/04/17 03:59:35;;;;;;;5.80;2.30;;;5.20;98.70;;;;;;5090095;28;20104;-45
2021/04/17 04:02:00;;;;;;;5.22;2.10;;;5.20;99.00;;;;;;5090576;28;20493;-45
2021/04/17 04:04:27;;;;;;;6.60;2.65;;;5.10;99.00;;;;;;5103735;28;20034;-45
2021/04/17 04:06:52;;;;;;;6.28;2.63;;;5.20;99.90;;;;;;5094477;28;20043;-45
2021/04/17 04:09:18;;;;;;;5.03;2.03;;;5.10;99.90;;;;;;5072513;28;20024;-45
2021/04/17 04:11:43;;;;;;;9.82;2.67;;;5.10;99.90;;;;;;5090500;28;20024;-45
2021/04/17 04:14:09;;;;;;;5.90;2.30;;;5.20;99.60;;;;;;5091158;28;20107;-44
2021/04/17 04:16:35;;;;;;;5.47;2.08;;;5.20;99.90;;;;;;5090969;28;20400;-45
2021/04/17 04:19:01;;;;;;;6.60;1.77;;;5.10;99.90;;;;;;5071544;28;20079;-45
2021/04/17 04:21:27;;;;;;;7.22;2.80;;;5.20;99.70;;;;;;5090110;28;20024;-45
2021/04/17 04:23:53;;;;;;;6.97;2.58;;;5.10;99.60;;;;;;5090692;28;20377;-45
2021/04/17 04:26:19;;;;;;;7.38;2.35;;;5.10;99.70;;;;;;5072186;28;20016;-47
2021/04/17 04:28:45;;;;;;;6.22;1.92;;;5.10;99.70;;;;;;5089960;28;20055;-45
2021/04/17 04:31:10;;;;;;;5.40;2.25;;;5.10;99.80;;;;;;5072118;28;20598;-45
2021/04/17 04:33:36;;;;;;;5.68;2.55;;;5.10;99.70;;;;;;5090190;28;20036;-45
2021/04/17 04:36:02;;;;;;;7.13;2.38;;;5.10;99.90;;;;;;5067772;28;20498;-46
2021/04/17 04:38:27;;;;;;;8.75;2.38;;;5.10;99.90;;;;;;5069490;28;20028;-45
2021/04/17 04:40:53;;;;;;;9.02;2.40;;;5.10;99.90;;;;;;5051699;28;20028;-45
2021/04/17 04:43:18;;;;;;;5.60;2.17;;;5.20;99.90;;;;;;5051951;28;20033;-45
2021/04/17 04:45:44;;;;;;;8.43;2.78;;;5.20;99.90;;;;;;5089415;28;20039;-44
2021/04/17 04:48:10;;;;;;;11.05;3.30;;;5.20;99.90;;;;;;5088994;28;20103;-45
2021/04/17 04:50:37;;;;;;;7.13;2.67;;;5.30;99.90;;;;;;5089246;28;20378;-45
2021/04/17 04:53:03;;;;;;;5.05;2.33;;;5.30;99.90;;;;;;5090058;28;20038;-45
2021/04/17 04:55:28;;;;;;;5.55;2.92;;;5.30;99.90;;;;;;5090008;28;20032;-44
2021/04/17 04:57:54;;;;;;;4.00;2.50;;;5.30;99.90;;;;;;5070749;28;20042;-46
2021/04/17 05:00:20;;;;;;;7.00;2.30;;;5.30;99.90;;;;;;5090116;28;20028;-44
2021/04/17 05:02:45;;;;;;;4.30;2.58;;;5.30;99.90;;;;;;5089512;28;20109;-46
2021/04/17 05:05:11;;;;;;;6.63;2.55;;;5.30;99.90;;;;;;5089270;28;20059;-46
2021/04/17 05:07:36;;;;;;;3.78;2.10;;;5.30;99.90;;;;;;5088929;28;20039;-46
2021/04/17 05:10:03;;;;;;;6.95;2.92;;;5.30;99.90;;;;;;5089469;28;20191;-45
2021/04/17 05:12:29;;;;;;;3.85;2.22;;;5.30;99.90;;;;;;5071919;28;20043;-47
2021/04/17 05:14:54;;;;;;;7.03;2.20;;;5.30;99.90;;;;;;5089354;28;20632;-45
2021/04/17 05:17:20;;;;;;;4.70;2.33;;;5.30;99.90;;;;;;5089148;28;20024;-47
2021/04/17 05:19:45;;;;;;;7.13;2.50;;;5.30;99.90;;;;;;5089070;28;20024;-46
2021/04/17 05:22:11;;;;;;;4.78;2.50;;;5.30;99.90;;;;;;5070894;28;20059;-45
2021/04/17 05:24:37;;;;;;;6.95;2.10;;;5.30;99.90;;;;;;5089332;28;20059;-49
2021/04/17 05:27:03;;;;;;;5.70;2.45;;;5.20;99.90;;;;;;5089418;28;20446;-45
2021/04/17 05:29:29;;;;;;;9.07;3.28;;;5.30;99.90;;;;;;5088787;28;20107;-44
2021/04/17 05:31:55;;;;;;;7.13;2.20;;;5.20;99.90;;;;;;5089313;28;20032;-46
2021/04/17 05:34:21;;;;;;;7.40;2.47;;;5.20;99.90;;;;;;5071222;28;20032;-45
2021/04/17 05:36:47;;;;;;;7.13;2.78;;;5.30;99.90;;;;;;5088990;28;20035;-45
2021/04/17 05:39:13;;;;;;;6.22;2.88;;;5.20;99.90;;;;;;5088362;28;20532;-45
2021/04/17 05:41:38;;;;;;;10.05;2.70;;;5.20;99.90;;;;;;5088780;28;20066;-45
2021/04/17 05:44:10;;;;;;;6.90;2.80;;;5.20;99.90;;;;;;5089542;28;20028;-44
2021/04/17 05:46:40;;;;;;;6.57;2.80;;;5.20;99.90;;;;;;5092823;28;20034;-45
2021/04/17 05:49:06;;;;;;;7.72;2.97;;;5.30;99.90;;;;;;5096126;28;20439;-44
2021/04/17 05:51:33;;;;;;;6.53;3.15;;;5.40;99.90;;;;;;5079925;28;20027;-43
2021/04/17 05:53:59;;;;;;;7.45;2.30;;;5.40;99.90;;;;;;5097428;28;20028;-46
2021/04/17 05:56:25;;;;;;;6.40;2.53;;;5.40;99.90;;;;;;5096482;28;20036;-45
2021/04/17 05:58:50;;;;;;;7.45;3.00;;;5.40;99.90;;;;;;5097650;28;20469;-45
2021/04/17 06:01:16;;;;;;;7.18;2.78;;;5.50;99.90;;;;;;5096515;28;20012;-45
2021/04/17 06:03:42;;;;;;;8.18;2.33;;;5.60;99.90;;;;;;5078211;28;20053;-44
2021/04/17 06:06:07;;;;;;;5.85;3.10;;;5.60;99.90;;;;;;5097897;28;20020;-46
2021/04/17 06:08:33;;;;;;;6.40;2.63;;;5.60;99.90;;;;;;5077800;28;20020;-46
2021/04/17 06:10:59;;;;;;;10.63;3.30;;;5.70;99.90;;;;;;5096600;28;20047;-45
2021/04/17 06:13:24;;;;;;;5.97;2.45;;;5.70;99.90;;;;;;5097960;28;20115;-44
2021/04/17 06:15:49;;;;;;;9.52;3.40;;;5.70;99.90;;;;;;5092613;28;20036;-46
2021/04/17 06:18:15;;;;;;;7.70;2.83;;;5.70;99.90;;;;;;5095349;28;20412;-45
2021/04/17 06:20:41;;;;;;;8.50;2.70;;;5.60;99.90;;;;;;5096194;28;20015;-46
2021/04/17 06:23:06;;;;;;;9.63;3.65;;;5.70;99.90;;;;;;5097455;28;20030;-46
2021/04/17 06:25:32;;;;;;;7.68;2.83;;;5.70;99.90;;;;;;5096180;28;20052;-45
2021/04/17 06:27:57;;;;;;;9.88;3.22;;;5.70;99.90;;;;;;5096576;28;20027;-48
2021/04/17 06:30:23;;;;;;;9.90;2.85;;;5.80;99.90;;;;;;5097543;28;20028;-44
2021/04/17 06:32:49;;;;;;;9.73;3.13;;;5.80;99.90;;;;;;5095923;28;20039;-46
2021/04/17 06:35:15;;;;;;;10.27;3.33;;;5.80;99.90;;;;;;5096219;28;20275;-46
2021/04/17 06:37:40;;;;;;;4.80;3.17;;;5.80;99.90;;;;;;5077524;28;20050;-45
2021/04/17 06:40:06;;;;;;;5.70;2.80;;;5.80;99.90;;;;;;5097655;28;20126;-45
2021/04/17 06:42:35;;;;;;;9.73;2.95;;;5.80;99.90;;;;;;5077582;28;20016;-46
2021/04/17 06:45:02;;;;;;;5.93;3.00;;;5.90;99.90;;;;;;5096340;28;20027;-45
2021/04/17 06:47:28;;;;;;;8.13;2.65;;;5.90;99.90;;;;;;5096990;28;20179;-45
2021/04/17 06:49:54;;;;;;;12.75;2.80;;;5.90;99.90;;;;;;5096211;28;20263;-46
2021/04/17 06:52:23;;;;;;;11.30;3.88;;;6.00;99.90;;;;;;5096006;28;20023;-48
2021/04/17 06:54:50;;;;;;;7.78;3.08;;;6.00;99.90;;;;;;5096943;28;20054;-45
2021/04/17 06:57:16;;;;;;;5.57;2.50;;;6.10;99.90;;;;;;5095490;28;20481;-43
2021/04/17 06:59:42;;;;;;;5.13;3.15;;;6.20;99.90;;;;;;5095116;28;20041;-44
2021/04/17 07:02:15;;;;;;;10.05;3.00;;;6.10;99.90;;;;;;5097533;28;20022;-45
2021/04/17 07:04:41;;;;;;;8.70;2.95;;;6.10;99.90;;;;;;5096596;28;20020;-46
2021/04/17 07:07:07;;;;;;;15.43;3.92;;;6.20;99.90;;;;;;5076513;28;20035;-46
2021/04/17 07:09:32;;;;;;;9.02;3.35;;;6.30;99.90;;;;;;5096303;28;20032;-45
2021/04/17 07:11:58;;;;;;;7.50;3.20;;;6.40;99.90;;;;;;5095874;28;20487;-48
2021/04/17 07:14:23;;;;;;;7.25;2.92;;;6.60;99.90;;;;;;5094879;28;20177;-44
2021/04/17 07:17:05;;;;;;;11.93;3.13;;;6.80;99.90;;;;;;5089697;28;20016;-46
2021/04/17 07:19:50;;;;;;;9.50;3.70;;;7.00;99.90;;;;;;5085121;28;20160;-44
2021/04/17 07:22:18;;;;;;;8.40;3.95;;;7.30;99.90;;;;;;5086377;28;20012;-46
2021/04/17 07:24:45;;;;;;;7.50;3.08;;;7.50;99.90;;;;;;5086521;28;20452;-46
2021/04/17 07:27:31;;;;;;;9.00;3.13;;;7.70;99.90;;;;;;5068539;28;20020;-46
2021/04/17 07:30:08;;;;;;;9.32;3.60;;;7.70;99.50;;;;;;5082690;28;20028;-47
2021/04/17 07:32:34;;;;;;;5.68;2.95;;;7.90;99.40;;;;;;5091501;28;20497;-44
2021/04/17 07:35:11;;;;;;;8.15;3.40;;;7.80;99.60;;;;;;5090749;28;20028;-44
2021/04/17 07:37:39;;;;;;;10.43;3.08;;;7.60;99.20;;;;;;5090369;28;20099;-46
2021/04/17 07:40:23;;;;;;;12.90;3.85;;;7.70;99.10;;;;;;5091146;28;20055;-45
2021/04/17 07:42:55;;;;;;;10.65;3.20;;;7.90;99.60;;;;;;5091295;28;20034;-46
2021/04/17 07:45:25;;;;;;;6.15;2.38;;;8.00;98.40;;;;;;5090796;28;20040;-45
2021/04/17 07:47:53;;;;;;;7.68;3.70;;;8.20;98.70;;;;;;5090494;28;20024;-46
2021/04/17 07:50:19;;;;;;;7.95;2.92;;;8.10;98.30;;;;;;5090713;28;20081;-44
2021/04/17 07:52:46;;;;;;;9.73;2.90;;;8.50;98.70;;;;;;5090797;28;20173;-46
2021/04/17 07:55:16;;;;;;;7.32;3.15;;;8.90;96.80;;;;;;5090811;28;20532;-45
2021/04/17 07:57:47;;;;;;;9.33;2.80;;;9.60;94.40;;;;;;5072342;28;20024;-45
2021/04/17 08:00:16;;;;;;;9.98;3.42;;;10.40;92.40;;;;;;5072431;28;20262;-45
2021/04/17 08:02:47;;;;;;;8.15;3.15;;;11.50;88.50;;;;;;5090321;28;20039;-45
2021/04/17 08:05:14;;;;;;;4.55;2.70;;;12.90;78.30;;;;;;5090662;28;20046;-50
2021/04/17 08:07:40;;;;;;;7.70;3.20;;;14.20;72.10;;;;;;5089031;28;20020;-46
2021/04/17 08:10:07;;;;;;;9.23;2.72;;;15.70;61.90;;;;;;5089985;28;20024;-46
2021/04/17 08:12:35;;;;;;;7.50;3.53;;;16.10;57.90;;;;;;5090717;28;20099;-47
2021/04/17 08:15:03;;;;;;;5.88;2.53;;;16.50;54.20;;;;;;5072401;28;20031;-46
2021/04/17 08:17:29;;;;;;;6.88;2.83;;;16.90;54.60;;;;;;5092192;28;20024;-47
2021/04/17 08:19:56;;;;;;;10.05;2.90;;;16.80;53.30;;;;;;5092890;28;20420;-46
2021/04/17 08:22:22;;;;;;;6.00;3.00;;;16.30;53.80;;;;;;5097872;28;20027;-46
2021/04/17 08:24:50;;;;;;;5.22;2.85;;;16.60;53.20;;;;;;5095302;28;20045;-45
2021/04/17 08:27:15;;;;;;;6.85;3.28;;;17.40;52.50;;;;;;5092524;28;20501;-47
2021/04/17 08:29:46;;;;;;;7.47;2.60;;;17.70;51.10;;;;;;5089125;28;20052;-47
2021/04/17 08:32:26;;;;;;;6.13;2.92;;;17.90;49.00;;;;;;5085806;28;20032;-45
2021/04/17 08:35:13;;;;;;;6.68;2.70;;;18.20;50.30;;;;;;5090160;28;20469;-46
2021/04/17 08:38:02;;;;;;;3.75;2.30;;;19.10;48.00;;;;;;5088777;28;20024;-45
2021/04/17 08:40:40;;;;;;;5.53;2.13;;;19.60;47.10;;;;;;5056891;28;20111;-48
2021/04/17 08:43:08;;;;;;;4.32;2.33;;;20.50;44.90;;;;;;5089173;28;20024;-46
2021/04/17 08:45:35;;;;;;;5.03;2.22;;;20.70;43.00;;;;;;5088504;28;20442;-46
2021/04/17 08:48:02;;;;;;;4.88;2.20;;;20.60;43.40;;;;;;5088808;28;20486;-47
2021/04/17 08:50:33;;;;;;;4.95;2.70;;;18.90;45.10;;;;;;5070945;28;20035;-46
2021/04/17 08:53:04;;;;;;;5.47;2.40;;;18.20;47.50;;;;;;5089786;28;20024;-47
2021/04/17 08:55:45;;;;;;;8.13;2.97;;;17.80;47.60;;;;;;5089313;28;20073;-45
2021/04/17 08:58:20;;;;;;;9.00;2.90;;;16.60;50.30;;;;;;5070544;28;20024;-48
2021/04/17 09:00:51;;;;;;;8.68;2.97;;;15.60;51.40;;;;;;5089758;28;20035;-47
2021/04/17 09:03:36;;;;;;;4.20;2.33;;;14.90;55.00;;;;;;5089255;28;20024;-45
2021/04/17 09:06:02;;;;;;;6.32;2.40;;;14.30;55.30;;;;;;5070525;28;20028;-48
2021/04/17 09:08:29;;;;;;;4.88;2.47;;;14.20;55.10;;;;;;5087903;28;20035;-46
2021/04/17 09:10:55;;;;;;;3.65;2.47;;;13.90;54.00;;;;;;5088362;28;20418;-45
2021/04/17 09:13:26;;;;;;;4.82;1.95;;;13.60;54.00;;;;;;5088899;28;20035;-46
2021/04/17 09:15:57;;;;;;;5.20;2.42;;;13.40;54.10;;;;;;5088907;28;20062;-46
2021/04/17 09:18:35;;;;;;;7.72;2.20;;;13.00;53.50;;;;;;5070576;28;20026;-46
2021/04/17 09:21:07;;;;;;;4.25;2.47;;;12.90;55.10;;;;;;5088498;28;20024;-46
2021/04/17 09:23:43;;;;;;;4.82;1.90;;;12.90;55.10;;;;;;5089042;28;20112;-45
2021/04/17 09:26:29;;;;;;;4.57;2.10;;;12.70;54.10;;;;;;5089143;28;20023;-45
2021/04/17 09:28:55;;;;;;;7.28;2.17;;;12.50;54.50;;;;;;5069064;28;20039;-45
2021/04/17 09:31:20;;;;;;;3.30;2.25;;;12.30;54.10;;;;;;5070203;28;20424;-46
2021/04/17 09:33:46;;;;;;;3.50;2.17;;;12.50;53.50;;;;;;5070507;28;20043;-47
2021/04/17 09:36:21;;;;;;;5.55;1.98;;;12.50;54.10;;;;;;5088125;28;20027;-46
2021/04/17 09:38:46;;;;;;;5.85;2.20;;;12.50;54.90;;;;;;5088314;28;20028;-46
2021/04/17 09:41:13;;;;;;;5.93;2.90;;;12.50;54.60;;;;;;5088637;28;20397;-46
2021/04/17 09:43:39;;;;;;;4.05;2.38;;;12.30;55.60;;;;;;5088665;28;20095;-45
2021/04/17 09:46:14;;;;;;;4.75;2.00;;;12.20;54.50;;;;;;5088660;28;20049;-46
2021/04/17 09:48:41;;;;;;;3.72;2.20;;;12.00;54.60;;;;;;5087763;28;20456;-44
2021/04/17 09:51:24;;;;;;;3.97;2.10;;;12.10;56.40;;;;;;5088091;28;20036;-46
2021/04/17 09:53:51;;;;;;;7.05;2.40;;;12.00;55.10;;;;;;5087696;28;20028;-46
2021/04/17 09:56:41;;;;;;;3.95;2.53;;;12.00;57.40;;;;;;5088650;28;20489;-49
2021/04/17 09:59:12;;;;;;;5.72;2.70;;;11.80;57.90;;;;;;5069318;28;20049;-45
2021/04/17 10:01:50;;;;;;;4.82;2.60;;;11.90;57.70;;;;;;5088607;28;20040;-46
2021/04/17 10:04:15;;;;;;;3.78;2.20;;;12.20;57.10;;;;;;5088314;28;20385;-46
2021/04/17 10:06:41;;;;;;;5.38;2.63;;;12.20;57.60;;;;;;5088110;28;20028;-47
2021/04/17 10:09:06;;;;;;;2.85;1.90;;;12.30;57.30;;;;;;5087431;28;20370;-46
2021/04/17 10:11:33;;;;;;;7.57;2.60;;;12.40;57.80;;;;;;5088048;28;20036;-45
2021/04/17 10:13:59;;;;;;;12.73;2.75;;;12.40;57.60;;;;;;5088280;28;20240;-47
2021/04/17 10:16:41;;;;;;;3.47;2.53;;;12.40;58.40;;;;;;5087319;28;20553;-45
2021/04/17 10:19:14;;;;;;;8.48;2.83;;;12.50;58.20;;;;;;5086233;28;20012;-49
2021/04/17 10:21:40;;;;;;;5.40;2.40;;;12.30;60.00;;;;;;5087961;28;20092;-47
2021/04/17 10:24:37;;;;;;;6.47;3.22;;;12.30;59.30;;;;;;5087993;28;20027;-46
2021/04/17 10:27:14;;;;;;;8.82;3.45;;;12.30;60.00;;;;;;5087923;28;20031;-48
2021/04/17 10:29:44;;;;;;;9.15;3.17;;;12.30;59.40;;;;;;5087391;28;20023;-46
2021/04/17 10:32:14;;;;;;;3.90;2.80;;;12.10;59.70;;;;;;5087724;28;20031;-45
2021/04/17 10:34:44;;;;;;;8.50;3.22;;;11.90;59.80;;;;;;5087388;28;20028;-47
2021/04/17 10:37:21;;;;;;;5.87;3.10;;;12.00;59.90;;;;;;5087687;28;20024;-46
2021/04/17 10:40:10;;;;;;;6.10;2.42;;;11.90;60.10;;;;;;5087636;28;20448;-46
2021/04/17 10:42:57;;;;;;;5.75;2.50;;;11.80;59.30;;;;;;5069413;28;20098;-46
2021/04/17 10:45:28;;;;;;;6.28;2.80;;;11.80;59.10;;;;;;5087203;28;20028;-47
2021/04/17 10:48:10;;;;;;;6.05;2.83;;;11.80;59.80;;;;;;5086448;28;20024;-44
2021/04/17 10:50:38;;;;;;;6.00;3.03;;;11.80;60.70;;;;;;5084290;28;20115;-48
2021/04/17 10:53:15;;;;;;;6.00;2.90;;;11.80;61.00;;;;;;5086853;28;20274;-46
2021/04/17 10:55:47;;;;;;;5.88;2.60;;;11.80;60.40;;;;;;5087433;28;20059;-46
2021/04/17 10:58:27;;;;;;;7.45;2.60;;;11.80;60.10;;;;;;5069120;28;20052;-45
2021/04/17 11:00:57;;;;;;;5.10;3.20;;;11.80;60.80;;;;;;5087498;28;20825;-44
2021/04/17 11:03:26;;;;;;;4.35;2.50;;;11.70;60.40;;;;;;5086724;28;20289;-44
2021/04/17 11:05:52;;;;;;;5.97;4.00;;;11.70;62.10;;;;;;5087017;28;20028;-47
2021/04/17 11:08:23;;;;;;;8.63;3.08;;;11.80;61.70;;;;;;5086754;28;20430;-46
2021/04/17 11:10:48;;;;;;;;;;;11.80;61.20;;;;;;5087919;28;20271;-44
2021/04/17 11:13:37;;;;;;;5.88;2.50;;;11.70;61.00;;;;;;5086980;28;20046;-45
2021/04/17 11:16:03;;;;;;;2.88;2.20;;;11.80;61.10;;;;;;5087075;28;20024;-46
2021/04/17 11:18:55;;;;;;;4.05;2.30;;;11.80;59.90;;;;;;5086608;28;20534;-45
2021/04/17 11:21:20;;;;;;;8.38;2.45;;;11.90;58.20;;;;;;5064378;28;20474;-45
2021/04/17 11:23:56;;;;;;;6.13;2.58;;;12.00;59.00;;;;;;5086992;28;20043;-45
2021/04/17 11:26:29;;;;;;;5.10;2.65;;;11.90;58.70;;;;;;5087116;28;20042;-45
2021/04/17 11:28:57;;;;;;;3.95;2.55;;;11.90;58.70;;;;;;5086348;28;20063;-46
2021/04/17 11:31:28;;;;;;;4.07;2.42;;;12.00;59.50;;;;;;5086683;28;20065;-46
2021/04/17 11:33:57;;;;;;;3.67;2.45;;;12.10;58.70;;;;;;5087185;28;20110;-45
2021/04/17 11:36:26;;;;;;;4.38;2.97;;;12.40;58.50;;;;;;5068191;28;20028;-45
2021/04/17 11:38:52;;;;;;;4.38;2.38;;;12.40;58.40;;;;;;5086488;28;20210;-44
2021/04/17 11:41:17;;;;;;;5.15;2.80;;;12.40;58.60;;;;;;5087210;28;20101;-46
2021/04/17 11:43:43;;;;;;;5.30;2.42;;;12.50;60.40;;;;;;5087281;28;20107;-47
2021/04/17 11:46:11;;;;;;;5.90;2.30;;;12.60;59.40;;;;;;5087427;28;20024;-45
2021/04/17 11:48:39;;;;;;;3.67;2.05;;;12.70;59.50;;;;;;5085596;28;20063;-45
2021/04/17 11:51:05;;;;;;;4.82;2.28;;;12.90;58.40;;;;;;5086507;28;20600;-44
2021/04/17 11:53:30;;;;;;;5.30;2.63;;;12.90;58.80;;;;;;5086700;28;20028;-46
2021/04/17 11:55:55;;;;;;;5.00;2.22;;;13.10;58.80;;;;;;5068101;28;20027;-45
2021/04/17 11:58:21;;;;;;;7.40;2.40;;;13.40;60.10;;;;;;5067637;28;20036;-45
2021/04/17 12:00:47;;;;;;;4.40;2.72;;;13.70;59.40;;;;;;5068349;28;20020;-46
2021/04/17 12:03:15;;;;;;;7.95;3.05;;;14.20;57.60;;;;;;5086628;28;20044;-46
2021/04/17 12:05:42;;;;;;;6.97;3.25;;;14.50;57.70;;;;;;5086616;28;20553;-46
2021/04/17 12:08:07;;;;;;;7.70;3.70;;;14.80;57.00;;;;;;5082429;28;20119;-45
2021/04/17 12:10:33;;;;;;;7.28;3.15;;;15.30;56.90;;;;;;5086937;28;20111;-45
2021/04/17 12:12:58;;;;;;;9.48;3.63;;;15.70;57.00;;;;;;5086115;28;20039;-45
2021/04/17 12:15:24;;;;;;;6.55;3.45;;;16.00;57.40;;;;;;5068330;28;20031;-46
2021/04/17 12:17:50;;;;;;;8.52;4.25;;;16.70;56.00;;;;;;5070861;28;20452;-46
2021/04/17 12:20:15;;;;;;;7.78;3.75;;;16.80;53.40;;;;;;5090442;28;20021;-48
2021/04/17 12:22:41;;;;;;;10.15;3.88;;;16.70;54.30;;;;;;5089709;28;20024;-45
2021/04/17 12:25:08;;;;;;;8.02;3.10;;;16.40;54.60;;;;;;5071909;28;20028;-45
2021/04/17 12:27:34;;;;;;;5.95;3.65;;;16.10;55.30;;;;;;5089741;28;20028;-46
2021/04/17 12:30:02;;;;;;;10.40;4.10;;;15.70;57.00;;;;;;5090353;28;20111;-45
2021/04/17 12:32:29;;;;;;;6.55;3.85;;;15.50;57.10;;;;;;5090249;28;20039;-46
2021/04/17 12:34:55;;;;;;;7.28;4.05;;;15.50;58.30;;;;;;5089891;28;20043;-47
2021/04/17 12:37:21;;;;;;;7.85;3.65;;;15.30;56.70;;;;;;5089326;28;20088;-46
2021/04/17 12:39:47;;;;;;;12.55;4.55;;;15.30;57.50;;;;;;5089811;28;20497;-45
2021/04/17 12:42:13;;;;;;;11.50;4.30;;;15.50;57.60;;;;;;5090358;28;20043;-45
2021/04/17 12:44:39;;;;;;;9.73;4.43;;;16.00;56.50;;;;;;5071160;28;20023;-46
2021/04/17 12:47:05;;;;;;;9.80;4.47;;;16.40;57.10;;;;;;5089406;28;20482;-45
2021/04/17 12:49:30;;;;;;;8.93;4.50;;;16.30;57.10;;;;;;5088455;28;20497;-46
2021/04/17 12:51:56;;;;;;;9.98;4.13;;;16.00;56.50;;;;;;5090078;28;20074;-45
2021/04/17 12:54:21;;;;;;;8.75;4.05;;;15.90;57.10;;;;;;5089534;28;20421;-46
2021/04/17 12:56:47;;;;;;;10.98;4.93;;;15.60;57.50;;;;;;5089608;28;20085;-45
2021/04/17 12:59:12;;;;;;;5.32;3.80;;;15.30;58.30;;;;;;5088566;28;20028;-46